Terminal Aerodrome Forecast
Issued by NWS Denver/Boulder, CO

Home | Current Version | Previous Version | Text Only | Print | Product List | Glossary On
Versions: 1 2 3 4 5 6 7 8 9 10 11 12 13 14 15 16 17 18 19 20 21 22 23 24 25 26 27 28 29 30 31 32 33 34 35 36 37 38 39 40 41 42 43 44 45 46 47 48 49 50
000
FTUS45 KBOU 221731
TAFDEN
TAF
KDEN 221731Z 2218/2324 17009KT P6SM SCT070 BKN110
      TEMPO 2220/2224 VRB20G32KT -TSRA BKN070CB
     FM230000 04008KT P6SM SCT080 BKN120
     FM230200 11009KT P6SM FEW080 SCT120
     FM230400 16010KT P6SM FEW110
     FM230600 20010KT P6SM FEW120 SCT200
     FM231200 23008KT P6SM SCT120 BKN180
     FM231900 30009KT P6SM FEW090 SCT150=

USA.gov is the U.S. government's official web portal to all federal, state and local government web resources and services.